createdAt,value
2019-05-22T00:04:18.982Z,9.97
2019-05-22T00:09:23.968Z,8.67
2019-05-22T00:14:28.202Z,9.67
2019-05-22T00:19:31.765Z,8.50
2019-05-22T00:24:37.119Z,6.63
2019-05-22T00:29:43.167Z,6.33
2019-05-22T00:34:49.218Z,6.90
2019-05-22T00:39:54.384Z,6.87
2019-05-22T00:44:58.959Z,11.30
2019-05-22T00:50:04.131Z,10.27
2019-05-22T00:55:09.193Z,7.37
2019-05-22T01:00:16.283Z,8.27
2019-05-22T01:05:21.802Z,7.10
2019-05-22T01:10:26.771Z,6.30
2019-05-22T01:15:31.876Z,16.17
2019-05-22T01:20:37.030Z,13.83
2019-05-22T01:25:42.030Z,7.97
2019-05-22T01:31:03.475Z,10.50
2019-05-22T01:36:08.814Z,10.83
2019-05-22T01:41:32.679Z,16.03
2019-05-22T01:46:39.517Z,10.63
2019-05-22T01:51:44.680Z,14.23
2019-05-22T01:56:49.622Z,15.17
2019-05-22T02:01:53.321Z,16.57
2019-05-22T02:06:57.145Z,16.57
2019-05-22T02:12:04.935Z,20.47
2019-05-22T02:17:08.843Z,22.90
2019-05-22T02:22:13.124Z,18.17
2019-05-22T02:27:18.512Z,19.23
2019-05-22T02:32:23.498Z,19.98
2019-05-22T02:37:27.138Z,19.83
2019-05-22T02:42:31.034Z,19.63
2019-05-22T02:47:34.797Z,31.83
2019-05-22T02:52:38.150Z,21.20
2019-05-22T02:57:42.153Z,20.00
2019-05-22T03:02:57.720Z,18.23
2019-05-22T03:08:01.427Z,19.70
2019-05-22T03:13:06.325Z,15.93
2019-05-22T03:18:10.459Z,16.13
2019-05-22T03:23:22.571Z,22.37
2019-05-22T03:28:27.069Z,15.07
2019-05-22T03:33:30.810Z,16.37
2019-05-22T03:38:34.571Z,18.43
2019-05-22T03:43:37.919Z,14.30
2019-05-22T03:48:41.651Z,16.80
2019-05-22T03:53:46.452Z,16.27
2019-05-22T03:58:51.065Z,10.00
2019-05-22T04:03:55.844Z,14.23
2019-05-22T04:09:04.088Z,12.03
2019-05-22T04:14:07.450Z,14.47
2019-05-22T04:19:10.901Z,15.63
2019-05-22T04:24:15.577Z,14.77
2019-05-22T04:29:19.555Z,11.77
2019-05-22T04:34:23.444Z,13.63
2019-05-22T04:39:27.550Z,14.10
2019-05-22T04:44:31.008Z,17.27
2019-05-22T04:49:34.638Z,13.60
2019-05-22T04:54:38.186Z,13.03
2019-05-22T04:59:41.529Z,15.53
2019-05-22T05:04:45.200Z,16.53
2019-05-22T05:09:48.704Z,16.73
2019-05-22T05:14:52.500Z,15.30
2019-05-22T05:19:55.866Z,16.73
2019-05-22T05:24:59.332Z,17.17
2019-05-22T05:30:03.037Z,17.77
2019-05-22T05:35:10.273Z,13.90
2019-05-22T05:40:38.613Z,16.33
2019-05-22T05:45:43.286Z,18.47
2019-05-22T05:51:09.546Z,17.33
2019-05-22T05:56:14.802Z,21.80
2019-05-22T06:01:24.127Z,19.03
2019-05-22T06:06:33.632Z,20.17
2019-05-22T06:11:53.005Z,19.43
2019-05-22T06:17:31.689Z,15.50
2019-05-22T06:22:35.075Z,18.50
2019-05-22T06:27:42.739Z,18.33
2019-05-22T06:33:08.950Z,18.27
2019-05-22T06:38:35.162Z,13.53
2019-05-22T06:43:41.675Z,17.43
2019-05-22T06:48:45.650Z,15.77
2019-05-22T06:53:49.174Z,20.30
2019-05-22T06:58:52.564Z,16.67
2019-05-22T07:03:55.985Z,15.73
2019-05-22T07:08:59.316Z,16.40
2019-05-22T07:14:03.049Z,21.07
2019-05-22T07:19:07.579Z,22.40
2019-05-22T07:24:11.244Z,15.70
2019-05-22T07:29:15.026Z,13.83
2019-05-22T07:34:18.576Z,14.43
2019-05-22T07:39:22.087Z,13.95
2019-05-22T07:44:25.542Z,13.13
2019-05-22T07:49:29.229Z,12.37
2019-05-22T07:54:33.170Z,9.40
2019-05-22T07:59:37.160Z,9.90
2019-05-22T08:04:41.969Z,12.50
2019-05-22T08:09:45.696Z,12.30
2019-05-22T08:14:49.992Z,10.13
2019-05-22T08:19:53.495Z,10.83
2019-05-22T08:24:56.989Z,9.77
2019-05-22T08:30:00.429Z,8.00
2019-05-22T08:35:09.171Z,9.73
2019-05-22T08:40:14.166Z,10.83
2019-05-22T08:45:18.807Z,8.67
2019-05-22T08:50:23.823Z,11.07
2019-05-22T08:55:27.338Z,11.97
2019-05-22T09:00:30.927Z,9.00
2019-05-22T09:05:34.401Z,10.57
2019-05-22T09:10:37.788Z,8.27
2019-05-22T09:15:41.498Z,10.73
2019-05-22T09:20:49.406Z,10.50
2019-05-22T09:25:50.424Z,11.47
2019-05-22T09:30:54.078Z,12.57
2019-05-22T09:35:57.882Z,12.03
2019-05-22T09:41:03.362Z,9.47
2019-05-22T09:46:08.403Z,24.20
2019-05-22T09:51:11.807Z,12.97
2019-05-22T09:56:15.436Z,15.23
2019-05-22T10:01:19.490Z,10.53
2019-05-22T10:06:22.999Z,12.77
2019-05-22T10:11:27.442Z,11.30
2019-05-22T10:16:31.007Z,10.00
2019-05-22T10:21:34.692Z,9.47
2019-05-22T10:26:38.166Z,13.47
2019-05-22T10:31:41.788Z,9.50
2019-05-22T10:36:45.209Z,13.25
2019-05-22T10:41:48.560Z,12.47
2019-05-22T10:46:52.366Z,9.60
2019-05-22T10:51:55.809Z,15.30
2019-05-22T10:56:59.334Z,9.37
2019-05-22T11:02:03.310Z,9.77
2019-05-22T11:07:07.871Z,10.53
2019-05-22T11:12:12.236Z,8.10
2019-05-22T11:17:17.072Z,11.27
2019-05-22T11:22:20.494Z,7.17
2019-05-22T11:27:24.140Z,7.43
2019-05-22T11:32:27.564Z,5.65
2019-05-22T11:37:31.080Z,9.57
2019-05-22T11:42:34.863Z,6.97
2019-05-22T11:47:39.179Z,10.57
2019-05-22T11:52:42.668Z,9.37
2019-05-22T11:57:47.918Z,7.57
2019-05-22T12:02:53.006Z,8.87
2019-05-22T12:07:56.965Z,16.37
2019-05-22T12:13:00.469Z,7.60
2019-05-22T12:18:05.000Z,8.40
2019-05-22T12:23:08.417Z,6.47
2019-05-22T12:28:12.117Z,7.67
2019-05-22T12:33:15.519Z,10.80
2019-05-22T12:38:21.832Z,11.60
2019-05-22T12:43:26.543Z,10.63
2019-05-22T12:48:30.338Z,9.60
2019-05-22T12:53:34.202Z,12.93
2019-05-22T12:58:40.103Z,12.67
2019-05-22T13:03:44.401Z,11.47
2019-05-22T13:08:47.745Z,16.63
2019-05-22T13:13:51.283Z,11.90
2019-05-22T13:18:54.947Z,13.70
2019-05-22T13:24:00.672Z,13.07
2019-05-22T13:29:07.129Z,8.83
2019-05-22T13:34:12.820Z,12.50
2019-05-22T13:39:16.986Z,13.60
2019-05-22T13:44:21.276Z,8.77
2019-05-22T13:49:26.612Z,9.80
2019-05-22T13:54:31.207Z,6.77
2019-05-22T13:59:35.192Z,10.28
2019-05-22T14:04:38.924Z,10.80
2019-05-22T14:09:43.189Z,11.60
2019-05-22T14:14:46.704Z,8.37
2019-05-22T14:19:50.136Z,10.83
2019-05-22T14:24:53.627Z,8.70
2019-05-22T14:29:57.494Z,7.57
2019-05-22T14:35:01.177Z,7.57
2019-05-22T14:40:08.135Z,6.57
2019-05-22T14:45:11.895Z,10.83
2019-05-22T14:50:15.409Z,7.40
2019-05-22T14:55:18.765Z,8.57
2019-05-22T15:00:24.567Z,6.40
2019-05-22T15:05:28.196Z,5.00
2019-05-22T15:10:32.029Z,6.97
2019-05-22T15:15:40.154Z,6.10
2019-05-22T15:20:42.684Z,5.40
2019-05-22T15:25:46.152Z,5.90
2019-05-22T15:30:49.664Z,6.57
2019-05-22T15:35:54.209Z,5.80
2019-05-22T15:40:57.654Z,6.17
2019-05-22T15:46:01.395Z,4.87
2019-05-22T15:51:09.083Z,5.87
2019-05-22T15:56:12.494Z,8.10
2019-05-22T16:01:17.737Z,6.70
2019-05-22T16:06:23.493Z,6.27
2019-05-22T16:11:27.551Z,6.97
2019-05-22T16:16:32.246Z,7.47
2019-05-22T16:21:38.566Z,4.73
2019-05-22T16:26:42.627Z,7.10
2019-05-22T16:31:46.595Z,4.83
2019-05-22T16:36:50.234Z,8.63
2019-05-22T16:41:54.197Z,7.03
2019-05-22T16:46:58.989Z,4.93
2019-05-22T16:52:04.149Z,6.40
2019-05-22T16:57:08.624Z,6.77
2019-05-22T17:02:14.082Z,4.90
2019-05-22T17:07:18.300Z,4.47
2019-05-22T17:12:23.329Z,3.67
2019-05-22T17:17:26.751Z,5.40
2019-05-22T17:22:30.114Z,5.30
2019-05-22T17:27:33.578Z,4.50
2019-05-22T17:32:38.094Z,5.77
2019-05-22T17:37:42.351Z,5.37
2019-05-22T17:42:46.178Z,3.87
2019-05-22T17:47:51.339Z,5.50
2019-05-22T17:52:55.275Z,3.67
2019-05-22T17:57:59.623Z,4.90
2019-05-22T18:03:03.207Z,3.77
2019-05-22T18:08:07.222Z,5.67
2019-05-22T18:13:12.148Z,4.33
2019-05-22T18:18:15.879Z,5.90
2019-05-22T18:23:19.233Z,5.70
2019-05-22T18:28:22.980Z,5.43
2019-05-22T18:33:26.425Z,7.43
2019-05-22T18:38:29.817Z,6.53
2019-05-22T18:43:33.730Z,4.90
2019-05-22T18:48:37.165Z,4.30
2019-05-22T18:53:40.521Z,6.20
2019-05-22T18:58:44.157Z,6.47
2019-05-22T19:03:47.704Z,5.60
2019-05-22T19:08:52.245Z,4.03
2019-05-22T19:13:55.663Z,7.20
2019-05-22T19:18:59.012Z,6.87
2019-05-22T19:24:02.472Z,5.93
2019-05-22T19:29:06.071Z,5.30
2019-05-22T19:34:11.035Z,4.47
2019-05-22T19:39:14.683Z,6.13
2019-05-22T19:44:18.321Z,6.53
2019-05-22T19:49:23.724Z,5.80
2019-05-22T19:54:27.380Z,5.10
2019-05-22T19:59:32.281Z,5.43
2019-05-22T20:04:36.275Z,6.20
2019-05-22T20:09:40.144Z,5.60
2019-05-22T20:14:43.704Z,4.70
2019-05-22T20:19:47.255Z,4.23
2019-05-22T20:24:51.098Z,6.77
2019-05-22T20:29:55.077Z,4.20
2019-05-22T20:34:59.322Z,5.33
2019-05-22T20:40:04.025Z,8.33
2019-05-22T20:45:09.651Z,3.80
2019-05-22T20:50:13.962Z,4.70
2019-05-22T20:55:19.468Z,3.40
2019-05-22T21:00:25.775Z,5.83
2019-05-22T21:05:29.372Z,3.95
2019-05-22T21:10:33.454Z,4.93
2019-05-22T21:15:36.995Z,6.57
2019-05-22T21:20:54.195Z,6.43
2019-05-22T21:25:48.150Z,5.27
2019-05-22T21:30:54.119Z,4.67
2019-05-22T21:35:57.635Z,4.67
2019-05-22T21:41:01.313Z,6.00
2019-05-22T21:46:05.610Z,3.50
2019-05-22T21:51:09.987Z,5.40
2019-05-22T21:56:13.548Z,4.57
2019-05-22T22:01:21.221Z,5.27
2019-05-22T22:06:24.926Z,6.60
2019-05-22T22:11:28.835Z,5.20
2019-05-22T22:16:32.261Z,5.07
2019-05-22T22:21:37.615Z,3.57
2019-05-22T22:26:41.719Z,3.10
2019-05-22T22:31:46.341Z,4.17
2019-05-22T22:36:50.266Z,13.60
2019-05-22T22:41:55.836Z,8.25
2019-05-22T22:47:01.244Z,6.80
2019-05-22T22:52:07.724Z,7.47
2019-05-22T22:57:11.898Z,5.07
2019-05-22T23:02:17.316Z,5.92
2019-05-22T23:07:22.135Z,6.40
2019-05-22T23:12:26.083Z,6.90
2019-05-22T23:17:31.059Z,5.03
2019-05-22T23:22:34.613Z,4.40
2019-05-22T23:27:39.082Z,5.27
2019-05-22T23:32:43.152Z,3.97
2019-05-22T23:37:46.484Z,4.73
2019-05-22T23:42:50.497Z,8.50
2019-05-22T23:47:59.851Z,5.00
2019-05-22T23:53:04.140Z,6.53
2019-05-22T23:58:10.027Z,5.43
